createdAt,value
2022-08-26T00:01:58.534Z,0.95
2022-08-26T00:05:23.183Z,1.00
2022-08-26T00:08:46.332Z,1.15
2022-08-26T00:12:12.132Z,1.00
2022-08-26T00:15:34.890Z,1.08
2022-08-26T00:18:57.194Z,1.00
2022-08-26T00:22:21.699Z,1.08
2022-08-26T00:25:44.110Z,0.90
2022-08-26T00:29:06.808Z,1.30
2022-08-26T00:32:29.016Z,0.90
2022-08-26T00:35:51.628Z,0.90
2022-08-26T00:39:14.115Z,0.80
2022-08-26T00:42:37.018Z,1.52
2022-08-26T00:46:02.883Z,1.80
2022-08-26T00:49:35.911Z,0.90
2022-08-26T00:53:00.379Z,1.10
2022-08-26T00:56:57.628Z,1.20
2022-08-26T01:00:27.217Z,1.33
2022-08-26T01:03:49.827Z,1.00
2022-08-26T01:07:12.317Z,1.08
2022-08-26T01:10:34.714Z,0.80
2022-08-26T01:13:59.889Z,1.38
2022-08-26T01:20:46.924Z,0.85
2022-08-26T01:24:10.726Z,1.02
2022-08-26T01:27:33.718Z,0.70
2022-08-26T01:30:57.541Z,1.05
2022-08-26T01:34:25.165Z,0.80
2022-08-26T01:37:50.078Z,0.88
2022-08-26T01:41:20.012Z,1.10
2022-08-26T01:44:57.655Z,1.02
2022-08-26T01:48:24.278Z,1.08
2022-08-26T01:51:48.067Z,1.25
2022-08-26T01:55:14.674Z,1.35
2022-08-26T01:58:56.893Z,1.10
2022-08-26T02:02:20.044Z,1.10
2022-08-26T02:05:48.805Z,1.08
2022-08-26T02:09:14.545Z,0.95
2022-08-26T02:12:37.828Z,1.08
2022-08-26T02:16:02.158Z,1.15
2022-08-26T02:19:29.300Z,1.40
2022-08-26T02:22:51.987Z,1.05
2022-08-26T02:26:20.488Z,0.88
2022-08-26T02:29:47.389Z,0.68
2022-08-26T02:33:12.658Z,0.60
2022-08-26T02:36:34.940Z,0.65
2022-08-26T02:39:57.331Z,0.77
2022-08-26T02:43:19.578Z,0.77
2022-08-26T02:46:54.707Z,0.68
2022-08-26T02:50:17.111Z,0.95
2022-08-26T02:53:39.913Z,0.40
2022-08-26T02:57:02.929Z,0.77
2022-08-26T03:00:25.848Z,0.80
2022-08-26T03:03:48.400Z,0.60
2022-08-26T03:07:11.819Z,0.93
2022-08-26T03:10:34.338Z,0.63
2022-08-26T03:13:57.271Z,1.00
2022-08-26T03:17:19.734Z,0.60
2022-08-26T03:20:41.958Z,0.77
2022-08-26T03:24:06.325Z,0.77
2022-08-26T03:27:28.530Z,0.85
2022-08-26T03:30:55.692Z,0.90
2022-08-26T03:34:18.941Z,0.70
2022-08-26T03:37:41.156Z,0.70
2022-08-26T03:41:03.329Z,0.77
2022-08-26T03:44:25.678Z,0.90
2022-08-26T03:47:48.755Z,0.70
2022-08-26T03:51:14.293Z,0.93
2022-08-26T03:54:41.109Z,0.65
2022-08-26T04:01:29.723Z,0.55
2022-08-26T04:04:53.148Z,0.63
2022-08-26T04:08:16.086Z,1.00
2022-08-26T04:11:39.606Z,0.50
2022-08-26T04:15:03.329Z,0.85
2022-08-26T04:18:31.459Z,0.90
2022-08-26T04:22:00.292Z,0.60
2022-08-26T04:25:24.288Z,0.65
2022-08-26T04:28:49.831Z,0.60
2022-08-26T04:32:12.033Z,0.60
2022-08-26T04:35:35.181Z,0.80
2022-08-26T04:39:00.388Z,0.60
2022-08-26T04:42:22.877Z,0.45
2022-08-26T04:45:48.988Z,1.00
2022-08-26T04:49:12.216Z,0.70
2022-08-26T04:52:35.558Z,0.40
2022-08-26T04:55:57.858Z,0.50
2022-08-26T04:59:20.474Z,0.90
2022-08-26T05:02:43.897Z,0.50
2022-08-26T05:06:06.790Z,0.40
2022-08-26T05:09:31.661Z,0.70
2022-08-26T05:12:53.849Z,0.60
2022-08-26T05:16:16.656Z,0.43
2022-08-26T05:19:40.435Z,0.57
2022-08-26T05:23:05.361Z,0.57
2022-08-26T05:26:31.685Z,0.60
2022-08-26T05:29:57.573Z,0.60
2022-08-26T05:33:20.487Z,0.77
2022-08-26T05:36:42.738Z,1.10
2022-08-26T05:40:06.873Z,0.85
2022-08-26T05:43:31.375Z,0.98
2022-08-26T05:46:53.726Z,1.40
2022-08-26T05:50:16.160Z,0.90
2022-08-26T05:53:40.652Z,1.42
2022-08-26T05:57:06.233Z,0.93
2022-08-26T06:00:28.553Z,0.93
2022-08-26T06:03:53.150Z,1.10
2022-08-26T06:07:16.871Z,1.10
2022-08-26T06:10:53.385Z,0.93
2022-08-26T06:14:17.220Z,1.10
2022-08-26T06:17:40.799Z,1.13
2022-08-26T06:21:20.318Z,1.05
2022-08-26T06:25:00.978Z,1.00
2022-08-26T06:28:24.545Z,1.02
2022-08-26T06:31:47.692Z,1.02
2022-08-26T06:35:11.857Z,0.90
2022-08-26T06:38:34.665Z,1.10
2022-08-26T06:42:00.167Z,0.90
2022-08-26T06:45:22.452Z,0.80
2022-08-26T06:48:45.812Z,1.05
2022-08-26T06:52:08.036Z,1.00
2022-08-26T06:55:32.010Z,0.95
2022-08-26T06:58:54.608Z,0.50
2022-08-26T07:02:18.251Z,0.88
2022-08-26T07:05:40.747Z,0.85
2022-08-26T07:09:05.642Z,0.75
2022-08-26T07:12:36.097Z,0.65
2022-08-26T07:16:03.043Z,0.70
2022-08-26T07:19:30.769Z,0.68
2022-08-26T07:22:53.903Z,0.50
2022-08-26T07:26:22.615Z,0.50
2022-08-26T07:29:47.188Z,0.57
2022-08-26T07:33:09.575Z,0.80
2022-08-26T07:36:33.145Z,0.60
2022-08-26T07:39:55.774Z,0.95
2022-08-26T07:43:18.434Z,0.60
2022-08-26T07:46:43.980Z,0.70
2022-08-26T07:50:06.565Z,0.57
2022-08-26T07:53:29.305Z,0.77
2022-08-26T07:56:51.883Z,1.17
2022-08-26T08:00:16.284Z,1.00
2022-08-26T08:03:40.453Z,0.93
2022-08-26T08:07:02.666Z,0.98
2022-08-26T08:10:26.716Z,0.90
2022-08-26T08:13:56.059Z,0.88
2022-08-26T08:17:18.836Z,0.77
2022-08-26T08:20:44.828Z,0.77
2022-08-26T08:24:16.661Z,1.02
2022-08-26T08:27:40.180Z,0.77
2022-08-26T08:31:03.315Z,0.60
2022-08-26T08:34:28.227Z,0.80
2022-08-26T08:37:54.290Z,0.63
2022-08-26T08:41:32.455Z,0.63
2022-08-26T08:44:58.360Z,0.70
2022-08-26T08:48:29.211Z,0.80
2022-08-26T08:51:51.608Z,1.10
2022-08-26T08:55:18.091Z,0.95
2022-08-26T08:58:53.206Z,1.08
2022-08-26T09:02:19.256Z,0.55
2022-08-26T09:05:48.746Z,1.25
2022-08-26T09:09:20.205Z,0.70
2022-08-26T09:12:43.647Z,0.98
2022-08-26T09:16:11.290Z,1.05
2022-08-26T09:19:38.749Z,0.80
2022-08-26T09:23:01.190Z,1.90
2022-08-26T09:26:47.456Z,3.38
2022-08-26T09:30:15.631Z,2.42
2022-08-26T09:33:38.074Z,2.50
2022-08-26T09:37:00.773Z,1.75
2022-08-26T09:40:35.829Z,1.88
2022-08-26T09:44:14.757Z,1.95
2022-08-26T09:47:45.512Z,1.70
2022-08-26T09:51:32.528Z,1.75
2022-08-26T09:55:15.078Z,0.82
2022-08-26T09:58:41.923Z,1.20
2022-08-26T10:02:27.396Z,0.95
2022-08-26T10:06:06.170Z,1.05
2022-08-26T10:09:33.245Z,0.75
2022-08-26T10:13:13.921Z,0.98
2022-08-26T10:16:52.654Z,1.13
2022-08-26T10:20:24.072Z,1.25
2022-08-26T10:23:54.825Z,1.13
2022-08-26T10:27:27.251Z,1.02
2022-08-26T10:31:23.006Z,1.30
2022-08-26T10:34:50.153Z,0.90
2022-08-26T10:38:19.578Z,0.90
2022-08-26T10:41:45.393Z,0.90
2022-08-26T10:45:14.963Z,0.88
2022-08-26T10:48:53.587Z,0.98
2022-08-26T10:53:12.599Z,1.00
2022-08-26T10:56:53.210Z,0.85
2022-08-26T11:00:58.390Z,0.90
2022-08-26T11:04:53.294Z,0.77
2022-08-26T11:08:21.077Z,1.40
2022-08-26T11:11:48.726Z,1.17
2022-08-26T11:15:29.380Z,1.17
2022-08-26T11:18:55.796Z,1.27
2022-08-26T11:22:36.339Z,0.80
2022-08-26T11:26:01.503Z,0.73
2022-08-26T11:30:29.264Z,0.82
2022-08-26T11:33:57.064Z,0.75
2022-08-26T11:41:06.516Z,0.75
2022-08-26T11:44:41.197Z,0.80
2022-08-26T11:48:19.448Z,0.80
2022-08-26T11:51:48.147Z,0.52
2022-08-26T11:55:14.348Z,0.60
2022-08-26T11:58:44.659Z,0.80
2022-08-26T12:02:15.219Z,0.70
2022-08-26T12:05:46.104Z,0.90
2022-08-26T12:09:13.851Z,0.57
2022-08-26T12:12:39.416Z,0.60
2022-08-26T12:16:02.558Z,0.90
2022-08-26T12:19:33.779Z,0.80
2022-08-26T12:22:58.783Z,0.63
2022-08-26T12:26:26.946Z,0.40
2022-08-26T12:30:09.593Z,0.60
2022-08-26T12:33:36.392Z,0.70
2022-08-26T12:40:41.694Z,0.40
2022-08-26T12:44:03.906Z,0.55
2022-08-26T12:47:35.140Z,0.70
2022-08-26T12:51:21.754Z,0.40
2022-08-26T12:54:59.093Z,0.57
2022-08-26T12:58:26.404Z,0.88
2022-08-26T13:01:49.467Z,0.50
2022-08-26T13:05:33.139Z,0.63
2022-08-26T13:09:23.538Z,0.68
2022-08-26T13:12:46.728Z,0.77
2022-08-26T13:16:09.010Z,0.60
2022-08-26T13:19:31.286Z,0.55
2022-08-26T13:22:58.610Z,0.52
2022-08-26T13:26:22.469Z,1.23
2022-08-26T13:29:44.658Z,0.60
2022-08-26T13:33:08.684Z,0.50
2022-08-26T13:36:34.383Z,0.40
2022-08-26T13:39:56.684Z,0.90
2022-08-26T13:43:19.050Z,0.55
2022-08-26T13:46:42.292Z,0.32
2022-08-26T13:50:05.713Z,0.63
2022-08-26T13:53:30.417Z,0.60
2022-08-26T13:56:52.761Z,0.52
2022-08-26T14:00:15.866Z,0.40
2022-08-26T14:03:38.342Z,0.70
2022-08-26T14:07:00.596Z,0.45
2022-08-26T14:10:23.937Z,0.50
2022-08-26T14:13:46.255Z,0.70
2022-08-26T14:17:08.509Z,0.45
2022-08-26T14:20:31.909Z,0.50
2022-08-26T14:23:57.812Z,0.57
2022-08-26T14:27:22.578Z,0.40
2022-08-26T14:30:51.078Z,0.40
2022-08-26T14:34:14.334Z,0.60
2022-08-26T14:37:37.238Z,0.50
2022-08-26T14:40:59.461Z,0.60
2022-08-26T14:44:31.148Z,0.50
2022-08-26T14:47:56.576Z,0.30
2022-08-26T14:51:21.470Z,0.40
2022-08-26T14:54:44.681Z,0.68
2022-08-26T14:58:07.144Z,0.50
2022-08-26T15:01:31.939Z,0.70
2022-08-26T15:04:54.362Z,0.30
2022-08-26T15:08:16.757Z,0.40
2022-08-26T15:11:39.054Z,0.57
2022-08-26T15:15:01.274Z,0.30
2022-08-26T15:18:23.543Z,0.40
2022-08-26T15:21:46.977Z,0.47
2022-08-26T15:25:09.869Z,0.52
2022-08-26T15:28:32.050Z,0.40
2022-08-26T15:31:55.304Z,0.38
2022-08-26T15:35:20.340Z,0.38
2022-08-26T15:38:42.687Z,0.40
2022-08-26T15:42:05.266Z,0.32
2022-08-26T15:45:27.889Z,0.40
2022-08-26T15:48:50.097Z,0.40
2022-08-26T15:52:12.350Z,0.40
2022-08-26T15:55:34.503Z,0.35
2022-08-26T15:58:57.650Z,0.50
2022-08-26T16:02:21.403Z,0.60
2022-08-26T16:05:44.529Z,0.30
2022-08-26T16:09:07.539Z,0.55
2022-08-26T16:12:29.703Z,0.30
2022-08-26T16:15:53.536Z,0.45
2022-08-26T16:19:15.886Z,0.40
2022-08-26T16:22:38.128Z,0.90
2022-08-26T16:26:00.566Z,0.30
2022-08-26T16:29:22.955Z,0.30
2022-08-26T16:32:46.070Z,0.43
2022-08-26T16:36:09.098Z,0.57
2022-08-26T16:39:31.421Z,0.60
2022-08-26T16:42:54.864Z,0.50
2022-08-26T16:46:17.221Z,0.70
2022-08-26T16:49:40.455Z,0.60
2022-08-26T16:53:02.688Z,0.32
2022-08-26T16:56:27.664Z,0.40
2022-08-26T16:59:56.593Z,1.17
2022-08-26T17:03:18.842Z,0.80
2022-08-26T17:06:41.312Z,1.60
2022-08-26T17:10:05.708Z,0.60
2022-08-26T17:13:35.581Z,0.60
2022-08-26T17:16:58.299Z,1.08
2022-08-26T17:20:22.317Z,0.95
2022-08-26T17:23:45.053Z,0.95
2022-08-26T17:27:07.538Z,0.85
2022-08-26T17:30:30.833Z,0.73
2022-08-26T17:33:55.405Z,1.02
2022-08-26T17:37:17.836Z,0.50
2022-08-26T17:40:40.233Z,0.60
2022-08-26T17:44:02.693Z,0.60
2022-08-26T17:47:25.051Z,0.57
2022-08-26T17:50:49.600Z,0.60
2022-08-26T17:54:12.097Z,0.47
2022-08-26T17:57:40.621Z,0.77
2022-08-26T18:01:06.116Z,0.70
2022-08-26T18:04:28.634Z,0.60
2022-08-26T18:07:51.545Z,0.55
2022-08-26T18:11:17.430Z,0.70
2022-08-26T18:14:39.614Z,0.68
2022-08-26T18:18:01.760Z,0.75
2022-08-26T18:21:26.879Z,0.93
2022-08-26T18:24:58.206Z,0.70
2022-08-26T18:28:21.756Z,0.60
2022-08-26T18:31:44.418Z,1.00
2022-08-26T18:35:07.344Z,0.80
2022-08-26T18:38:29.620Z,0.60
2022-08-26T18:41:53.280Z,0.88
2022-08-26T18:45:16.116Z,0.90
2022-08-26T18:48:39.616Z,0.73
2022-08-26T18:52:01.927Z,0.70
2022-08-26T18:55:24.263Z,0.60
2022-08-26T18:58:46.866Z,0.60
2022-08-26T19:02:09.694Z,1.38
2022-08-26T19:05:31.985Z,0.60
2022-08-26T19:08:54.529Z,0.70
2022-08-26T19:12:18.067Z,0.88
2022-08-26T19:15:42.687Z,0.73
2022-08-26T19:19:05.588Z,0.68
2022-08-26T19:22:27.841Z,0.80
2022-08-26T19:25:52.033Z,0.52
2022-08-26T19:29:15.447Z,0.67
2022-08-26T19:32:38.258Z,0.50
2022-08-26T19:36:03.675Z,0.88
2022-08-26T19:39:28.471Z,1.15
2022-08-26T19:42:50.752Z,0.57
2022-08-26T19:46:16.004Z,0.57
2022-08-26T19:49:38.575Z,0.98
2022-08-26T19:53:01.789Z,0.68
2022-08-26T19:56:24.113Z,0.75
2022-08-26T19:59:46.450Z,0.60
2022-08-26T20:03:10.633Z,0.60
2022-08-26T20:06:37.090Z,0.75
2022-08-26T20:09:59.565Z,0.60
2022-08-26T20:13:22.024Z,0.63
2022-08-26T20:16:44.418Z,1.00
2022-08-26T20:20:33.453Z,0.73
2022-08-26T20:23:58.365Z,0.50
2022-08-26T20:27:27.447Z,0.90
2022-08-26T20:31:01.964Z,0.93
2022-08-26T20:34:24.656Z,0.65
2022-08-26T20:37:47.517Z,0.90
2022-08-26T20:41:10.366Z,0.60
2022-08-26T20:44:33.614Z,0.80
2022-08-26T20:47:35.644Z,1.27
2022-08-26T20:50:58.901Z,0.50
2022-08-26T20:54:26.204Z,0.60
2022-08-26T20:57:51.412Z,0.60
2022-08-26T21:01:24.406Z,0.57
2022-08-26T21:04:46.898Z,0.60
2022-08-26T21:08:09.547Z,0.52
2022-08-26T21:11:35.490Z,0.60
2022-08-26T21:14:57.708Z,0.80
2022-08-26T21:18:19.933Z,0.60
2022-08-26T21:21:42.382Z,1.00
2022-08-26T21:25:05.003Z,0.60
2022-08-26T21:28:27.193Z,0.80
2022-08-26T21:31:49.679Z,0.73
2022-08-26T21:35:12.078Z,0.73
2022-08-26T21:38:36.513Z,0.60
2022-08-26T21:41:59.181Z,0.80
2022-08-26T21:45:22.690Z,0.57
2022-08-26T21:48:51.197Z,0.57
2022-08-26T21:52:13.652Z,0.70
2022-08-26T21:55:38.570Z,0.60
2022-08-26T21:59:01.387Z,0.70
2022-08-26T22:02:23.743Z,0.52
2022-08-26T22:05:51.195Z,0.60
2022-08-26T22:09:16.000Z,0.80
2022-08-26T22:12:38.656Z,0.57
2022-08-26T22:16:01.455Z,0.77
2022-08-26T22:19:24.473Z,0.70
2022-08-26T22:22:47.442Z,0.60
2022-08-26T22:26:12.133Z,0.60
2022-08-26T22:29:34.514Z,0.65
2022-08-26T22:32:56.821Z,0.55
2022-08-26T22:36:22.347Z,0.38
2022-08-26T22:39:44.584Z,0.70
2022-08-26T22:43:07.686Z,0.75
2022-08-26T22:46:30.230Z,0.50
2022-08-26T22:49:52.532Z,0.77
2022-08-26T22:53:16.386Z,0.60
2022-08-26T22:56:38.658Z,0.60
2022-08-26T23:00:00.924Z,0.88
2022-08-26T23:03:23.169Z,0.90
2022-08-26T23:06:47.541Z,0.50
2022-08-26T23:10:11.005Z,0.80
2022-08-26T23:13:33.277Z,0.57
2022-08-26T23:16:55.578Z,0.85
2022-08-26T23:20:19.545Z,0.40
2022-08-26T23:23:41.761Z,0.47
2022-08-26T23:27:04.718Z,0.70
2022-08-26T23:30:29.743Z,0.73
2022-08-26T23:37:35.093Z,0.60
2022-08-26T23:40:58.132Z,1.10
2022-08-26T23:44:20.736Z,0.68
2022-08-26T23:47:42.984Z,0.60
2022-08-26T23:51:23.932Z,0.70
2022-08-26T23:54:48.611Z,0.73
2022-08-26T23:58:11.115Z,1.08
